createdAt,value
2018-07-14T00:00:28.758Z,0.00
2018-07-14T00:01:28.803Z,0.00
2018-07-14T00:02:28.862Z,0.00
2018-07-14T00:03:28.883Z,0.00
2018-07-14T00:04:28.936Z,0.00
2018-07-14T00:05:28.964Z,0.00
2018-07-14T00:06:29.057Z,0.00
2018-07-14T00:07:29.083Z,0.00
2018-07-14T00:08:29.135Z,0.00
2018-07-14T00:09:29.317Z,0.00
2018-07-14T00:10:29.194Z,0.00
2018-07-14T00:11:29.217Z,0.00
2018-07-14T00:12:29.314Z,0.00
2018-07-14T00:13:29.324Z,0.00
2018-07-14T00:14:29.355Z,0.00
2018-07-14T00:15:29.411Z,0.00
2018-07-14T00:16:29.434Z,0.00
2018-07-14T00:17:29.487Z,0.00
2018-07-14T00:18:29.528Z,0.00
2018-07-14T00:19:29.554Z,0.00
2018-07-14T00:20:29.585Z,0.00
2018-07-14T00:21:29.646Z,0.00
2018-07-14T00:22:29.700Z,0.00
2018-07-14T00:23:29.760Z,0.00
2018-07-14T00:24:29.786Z,0.00
2018-07-14T00:25:29.830Z,0.00
2018-07-14T00:26:29.899Z,0.00
2018-07-14T00:27:29.906Z,0.00
2018-07-14T00:28:29.936Z,0.00
2018-07-14T00:29:30.017Z,0.00
2018-07-14T00:30:30.054Z,0.00
2018-07-14T00:31:30.098Z,0.00
2018-07-14T00:32:30.134Z,0.00
2018-07-14T00:33:30.202Z,0.00
2018-07-14T00:34:30.217Z,0.00
2018-07-14T00:35:30.274Z,0.00
2018-07-14T00:36:30.308Z,0.00
2018-07-14T00:37:30.352Z,0.00
2018-07-14T00:38:30.398Z,0.00
2018-07-14T00:39:30.498Z,0.00
2018-07-14T00:40:30.486Z,0.00
2018-07-14T00:41:30.515Z,0.00
2018-07-14T00:42:30.553Z,0.00
2018-07-14T00:43:30.588Z,0.00
2018-07-14T00:44:30.637Z,0.00
2018-07-14T00:45:30.716Z,0.00
2018-07-14T00:46:30.737Z,0.00
2018-07-14T00:47:30.766Z,0.00
2018-07-14T00:48:30.837Z,0.00
2018-07-14T00:49:30.863Z,0.00
2018-07-14T00:50:30.953Z,0.00
2018-07-14T00:51:30.960Z,0.00
2018-07-14T00:52:30.989Z,0.00
2018-07-14T00:53:31.046Z,0.00
2018-07-14T00:54:31.095Z,0.00
2018-07-14T00:55:31.113Z,0.00
2018-07-14T00:56:31.178Z,0.00
2018-07-14T00:57:31.192Z,0.00
2018-07-14T00:58:31.243Z,0.00
2018-07-14T00:59:31.299Z,0.00
2018-07-14T01:00:31.339Z,0.00
2018-07-14T01:01:31.391Z,0.00
2018-07-14T01:02:31.436Z,0.00
2018-07-14T01:03:31.476Z,0.00
2018-07-14T01:04:31.533Z,0.00
2018-07-14T01:05:31.573Z,0.00
2018-07-14T01:06:31.619Z,0.00
2018-07-14T01:07:31.634Z,0.00
2018-07-14T01:08:31.675Z,0.00
2018-07-14T01:09:31.715Z,0.00
2018-07-14T01:10:31.790Z,0.00
2018-07-14T01:11:31.815Z,0.00
2018-07-14T01:12:31.867Z,0.00
2018-07-14T01:13:32.103Z,0.00
2018-07-14T01:14:31.958Z,0.00
2018-07-14T01:15:31.976Z,0.00
2018-07-14T01:16:32.010Z,0.00
2018-07-14T01:17:32.064Z,0.00
2018-07-14T01:18:32.119Z,0.00
2018-07-14T01:19:32.158Z,0.00
2018-07-14T01:20:32.196Z,0.00
2018-07-14T01:21:32.233Z,0.00
2018-07-14T01:22:32.260Z,0.00
2018-07-14T01:23:32.328Z,0.00
2018-07-14T01:24:32.380Z,0.00
2018-07-14T01:25:32.603Z,0.00
2018-07-14T01:26:32.438Z,0.00
2018-07-14T01:27:32.478Z,0.00
2018-07-14T01:28:32.565Z,0.00
2018-07-14T01:29:32.564Z,0.00
2018-07-14T01:30:32.661Z,0.00
2018-07-14T01:31:32.654Z,0.00
2018-07-14T01:32:32.695Z,0.00
2018-07-14T01:33:32.756Z,0.00
2018-07-14T01:34:32.788Z,0.00
2018-07-14T01:35:32.818Z,0.00
2018-07-14T01:36:32.867Z,0.00
2018-07-14T01:37:33.152Z,0.00
2018-07-14T01:38:32.932Z,0.00
2018-07-14T01:39:32.987Z,0.00
2018-07-14T01:40:33.098Z,0.00
2018-07-14T01:41:33.095Z,0.00
2018-07-14T01:42:33.118Z,0.00
2018-07-14T01:43:33.160Z,0.00
2018-07-14T01:44:33.205Z,0.00
2018-07-14T01:45:33.261Z,0.00
2018-07-14T01:46:33.314Z,0.00
2018-07-14T01:47:33.340Z,0.00
2018-07-14T01:48:33.396Z,0.00
2018-07-14T01:49:33.429Z,0.00
2018-07-14T01:50:33.474Z,0.00
2018-07-14T01:51:33.512Z,0.00
2018-07-14T01:52:33.552Z,0.00
2018-07-14T01:53:33.587Z,0.00
2018-07-14T01:54:33.642Z,0.00
2018-07-14T01:55:33.672Z,0.00
2018-07-14T01:56:33.760Z,0.00
2018-07-14T01:57:33.759Z,0.00
2018-07-14T01:58:33.813Z,0.00
2018-07-14T01:59:33.835Z,0.00
2018-07-14T02:00:33.906Z,0.00
2018-07-14T02:01:33.942Z,0.00
2018-07-14T02:02:33.969Z,0.00
2018-07-14T02:03:34.030Z,0.00
2018-07-14T02:04:34.272Z,0.00
2018-07-14T02:05:34.098Z,0.00
2018-07-14T02:06:34.129Z,0.00
2018-07-14T02:07:34.181Z,0.00
2018-07-14T02:08:34.218Z,0.00
2018-07-14T02:09:34.265Z,0.00
2018-07-14T02:10:34.322Z,0.00
2018-07-14T02:11:34.371Z,0.00
2018-07-14T02:12:34.392Z,0.00
2018-07-14T02:13:34.454Z,0.00
2018-07-14T02:14:34.473Z,0.00
2018-07-14T02:15:34.736Z,0.00
2018-07-14T02:16:34.577Z,0.00
2018-07-14T02:17:34.647Z,0.00
2018-07-14T02:18:34.627Z,0.00
2018-07-14T02:19:34.682Z,0.00
2018-07-14T02:20:34.753Z,0.00
2018-07-14T02:21:34.781Z,0.00
2018-07-14T02:22:34.833Z,0.00
2018-07-14T02:23:34.860Z,0.00
2018-07-14T02:24:34.906Z,0.00
2018-07-14T02:25:34.920Z,0.00
2018-07-14T02:26:34.986Z,0.00
2018-07-14T02:27:35.036Z,0.00
2018-07-14T02:28:35.078Z,0.00
2018-07-14T02:29:35.100Z,0.00
2018-07-14T02:30:35.180Z,0.00
2018-07-14T02:31:35.234Z,0.00
2018-07-14T02:32:35.248Z,0.00
2018-07-14T02:33:35.280Z,0.00
2018-07-14T02:34:35.314Z,0.00
2018-07-14T02:35:35.365Z,0.00
2018-07-14T02:36:35.401Z,0.00
2018-07-14T02:37:35.463Z,0.00
2018-07-14T02:38:35.478Z,0.00
2018-07-14T02:39:35.526Z,0.00
2018-07-14T02:40:35.584Z,0.00
2018-07-14T02:41:35.624Z,0.00
2018-07-14T02:42:35.651Z,0.00
2018-07-14T02:43:35.702Z,0.00
2018-07-14T02:44:35.782Z,0.00
2018-07-14T02:45:35.783Z,0.00
2018-07-14T02:46:35.829Z,0.00
2018-07-14T02:47:35.872Z,0.00
2018-07-14T02:48:35.922Z,0.00
2018-07-14T02:49:35.933Z,0.00
2018-07-14T02:50:35.979Z,0.00
2018-07-14T02:51:36.040Z,0.00
2018-07-14T02:52:36.079Z,0.00
2018-07-14T02:53:36.109Z,0.00
2018-07-14T02:54:36.154Z,0.00
2018-07-14T02:55:36.212Z,0.00
2018-07-14T02:56:36.243Z,0.00
2018-07-14T02:57:36.299Z,0.00
2018-07-14T02:58:36.327Z,0.00
2018-07-14T02:59:36.463Z,0.00
2018-07-14T03:00:36.389Z,0.00
2018-07-14T03:01:36.457Z,0.00
2018-07-14T03:02:36.490Z,0.00
2018-07-14T03:03:36.537Z,0.00
2018-07-14T03:04:36.597Z,0.00
2018-07-14T03:05:36.607Z,0.00
2018-07-14T03:06:36.668Z,0.00
2018-07-14T03:07:36.732Z,0.00
2018-07-14T03:08:36.742Z,0.00
2018-07-14T03:09:36.789Z,0.00
2018-07-14T03:10:36.846Z,0.00
2018-07-14T03:11:36.858Z,0.00
2018-07-14T03:12:36.920Z,0.00
2018-07-14T03:13:36.950Z,0.00
2018-07-14T03:14:36.997Z,0.00
2018-07-14T03:15:37.044Z,0.00
2018-07-14T03:16:37.086Z,0.00
2018-07-14T03:17:37.114Z,0.00
2018-07-14T03:18:37.180Z,0.00
2018-07-14T03:19:37.305Z,0.00
2018-07-14T03:20:37.252Z,0.00
2018-07-14T03:21:37.479Z,0.00
2018-07-14T03:22:37.321Z,0.00
2018-07-14T03:23:37.354Z,0.00
2018-07-14T03:24:37.410Z,0.00
2018-07-14T03:25:37.450Z,0.00
2018-07-14T03:26:37.494Z,0.00
2018-07-14T03:27:37.545Z,0.00
2018-07-14T03:28:37.555Z,0.00
2018-07-14T03:29:37.624Z,0.00
2018-07-14T03:30:37.655Z,0.00
2018-07-14T03:31:37.726Z,0.00
2018-07-14T03:32:37.793Z,0.00
2018-07-14T03:33:37.793Z,0.00
2018-07-14T03:34:37.823Z,0.00
2018-07-14T03:35:37.868Z,0.00
2018-07-14T03:36:37.923Z,0.00
2018-07-14T03:37:37.976Z,0.00
2018-07-14T03:38:37.988Z,0.00
2018-07-14T03:39:38.242Z,0.00
2018-07-14T03:40:38.064Z,0.00
2018-07-14T03:41:38.123Z,0.00
2018-07-14T03:42:38.157Z,0.00
2018-07-14T03:43:38.194Z,0.00
2018-07-14T03:44:38.247Z,0.00
2018-07-14T03:45:38.273Z,0.00
2018-07-14T03:46:38.337Z,0.00
2018-07-14T03:47:38.368Z,0.00
2018-07-14T03:48:38.403Z,0.00
2018-07-14T03:49:38.458Z,0.00
2018-07-14T03:50:38.675Z,0.00
2018-07-14T03:51:38.543Z,0.00
2018-07-14T03:52:38.597Z,0.00
2018-07-14T03:53:38.622Z,0.00
2018-07-14T03:54:38.664Z,0.00
2018-07-14T03:55:38.727Z,0.00
2018-07-14T03:56:38.801Z,0.00
2018-07-14T03:57:38.840Z,0.00
2018-07-14T03:58:38.857Z,0.00
2018-07-14T03:59:38.862Z,0.00
2018-07-14T04:00:38.921Z,0.00
2018-07-14T04:01:38.966Z,0.00
2018-07-14T04:02:39.015Z,0.00
2018-07-14T04:03:39.061Z,0.00
2018-07-14T04:04:39.088Z,0.00
2018-07-14T04:05:39.120Z,0.00
2018-07-14T04:06:39.239Z,0.00
2018-07-14T04:07:39.192Z,0.00
2018-07-14T04:08:39.246Z,0.00
2018-07-14T04:09:39.310Z,0.00
2018-07-14T04:10:39.343Z,0.00
2018-07-14T04:11:39.379Z,0.00
2018-07-14T04:12:39.706Z,0.00
2018-07-14T04:13:39.471Z,0.00
2018-07-14T04:14:39.551Z,0.00
2018-07-14T04:15:39.554Z,0.00
2018-07-14T04:16:39.631Z,0.00
2018-07-14T04:17:39.631Z,0.00
2018-07-14T04:18:39.674Z,0.00
2018-07-14T04:19:39.735Z,0.00
2018-07-14T04:20:39.766Z,0.00
2018-07-14T04:21:39.815Z,0.00
2018-07-14T04:22:39.845Z,0.00
2018-07-14T04:23:39.864Z,0.00
2018-07-14T04:24:39.948Z,0.00
2018-07-14T04:25:39.967Z,0.00
2018-07-14T04:26:40.009Z,0.00
2018-07-14T04:27:40.275Z,0.00
2018-07-14T04:28:40.111Z,0.00
2018-07-14T04:29:40.155Z,0.00
2018-07-14T04:30:40.199Z,0.00
2018-07-14T04:31:40.224Z,0.00
2018-07-14T04:32:40.262Z,0.00
2018-07-14T04:33:40.335Z,0.00
2018-07-14T04:34:40.378Z,0.00
2018-07-14T04:35:40.413Z,0.00
2018-07-14T04:36:40.437Z,0.00
2018-07-14T04:37:40.493Z,0.00
2018-07-14T04:38:40.521Z,0.00
2018-07-14T04:39:40.818Z,0.00
2018-07-14T04:40:40.619Z,0.00
2018-07-14T04:41:40.689Z,0.00
2018-07-14T04:42:40.680Z,0.00
2018-07-14T04:43:40.727Z,0.00
2018-07-14T04:44:40.795Z,0.00
2018-07-14T04:45:40.886Z,0.00
2018-07-14T04:46:40.884Z,0.00
2018-07-14T04:47:40.923Z,0.00
2018-07-14T04:48:40.938Z,0.00
2018-07-14T04:49:40.977Z,0.00
2018-07-14T04:50:41.052Z,0.00
2018-07-14T04:51:41.093Z,0.00
2018-07-14T04:52:41.134Z,0.00
2018-07-14T04:53:41.196Z,0.00
2018-07-14T04:54:41.209Z,0.00
2018-07-14T04:55:41.466Z,0.00
2018-07-14T04:56:41.293Z,0.00
2018-07-14T04:57:41.352Z,0.00
2018-07-14T04:58:41.356Z,0.00
2018-07-14T04:59:41.420Z,0.00
2018-07-14T05:00:41.472Z,0.00
2018-07-14T05:01:41.503Z,0.00
2018-07-14T05:02:41.547Z,0.00
2018-07-14T05:03:41.604Z,0.00
2018-07-14T05:04:41.651Z,0.00
2018-07-14T05:05:41.681Z,0.00
2018-07-14T05:06:41.706Z,0.00
2018-07-14T05:07:41.774Z,0.00
2018-07-14T05:08:41.806Z,0.00
2018-07-14T05:09:41.837Z,0.00
2018-07-14T05:10:41.865Z,0.00
2018-07-14T05:11:41.927Z,0.00
2018-07-14T05:12:41.997Z,0.00
2018-07-14T05:13:41.990Z,0.00
2018-07-14T05:14:42.048Z,0.00
2018-07-14T05:15:42.088Z,0.00
2018-07-14T05:16:42.151Z,0.00
2018-07-14T05:17:42.182Z,0.00
2018-07-14T05:18:42.238Z,0.00
2018-07-14T05:19:42.256Z,0.00
2018-07-14T05:20:42.306Z,0.00
2018-07-14T05:21:42.369Z,0.00
2018-07-14T05:22:42.597Z,0.00
2018-07-14T05:23:42.434Z,0.00
2018-07-14T05:24:42.511Z,0.00
2018-07-14T05:25:42.511Z,0.00
2018-07-14T05:26:42.556Z,0.00
2018-07-14T05:27:42.627Z,0.00
2018-07-14T05:28:42.714Z,0.00
2018-07-14T05:29:42.702Z,0.00
2018-07-14T05:30:42.782Z,0.00
2018-07-14T05:31:42.796Z,0.00
2018-07-14T05:32:42.832Z,0.00
2018-07-14T05:33:42.914Z,0.00
2018-07-14T05:34:42.926Z,0.00
2018-07-14T05:35:42.940Z,0.00
2018-07-14T05:36:43.005Z,0.00
2018-07-14T05:37:43.032Z,0.00
2018-07-14T05:38:43.077Z,0.00
2018-07-14T05:39:43.183Z,0.00
2018-07-14T05:40:43.192Z,0.00
2018-07-14T05:41:43.230Z,0.00
2018-07-14T05:42:43.255Z,0.00
2018-07-14T05:43:43.481Z,0.00
2018-07-14T05:44:43.368Z,0.00
2018-07-14T05:45:43.376Z,0.00
2018-07-14T05:46:43.448Z,0.00
2018-07-14T05:47:43.461Z,0.00
2018-07-14T05:48:43.521Z,0.00
2018-07-14T05:49:43.601Z,0.00
2018-07-14T05:50:43.619Z,0.00
2018-07-14T05:51:43.660Z,0.00
2018-07-14T05:52:43.733Z,0.00
2018-07-14T05:53:43.752Z,0.00
2018-07-14T05:54:43.787Z,0.00
2018-07-14T05:55:43.994Z,0.00
2018-07-14T05:56:43.880Z,0.00
2018-07-14T05:57:43.912Z,0.00
2018-07-14T05:58:43.952Z,0.00
2018-07-14T05:59:44.007Z,0.00
2018-07-14T06:00:44.021Z,0.00
2018-07-14T06:01:44.049Z,0.00
2018-07-14T06:02:44.118Z,0.00
2018-07-14T06:03:44.162Z,0.00
2018-07-14T06:04:44.194Z,0.00
2018-07-14T06:05:44.244Z,0.00
2018-07-14T06:06:44.477Z,0.00
2018-07-14T06:07:44.358Z,0.00
2018-07-14T06:08:44.369Z,0.00
2018-07-14T06:09:44.394Z,0.00
2018-07-14T06:10:44.446Z,0.00
2018-07-14T06:11:44.496Z,0.00
2018-07-14T06:12:44.549Z,0.00
2018-07-14T06:13:44.592Z,0.00
2018-07-14T06:14:44.625Z,0.00
2018-07-14T06:15:44.675Z,0.00
2018-07-14T06:16:44.703Z,0.00
2018-07-14T06:17:44.955Z,0.00
2018-07-14T06:18:44.782Z,0.00
2018-07-14T06:19:44.823Z,0.00
2018-07-14T06:20:44.895Z,0.00
2018-07-14T06:21:44.948Z,0.00
2018-07-14T06:22:44.955Z,0.00
2018-07-14T06:23:45.016Z,0.00
2018-07-14T06:24:45.064Z,0.00
2018-07-14T06:25:45.078Z,0.00
2018-07-14T06:26:45.143Z,0.00
2018-07-14T06:27:45.182Z,0.00
2018-07-14T06:28:45.218Z,0.00
2018-07-14T06:29:45.450Z,0.00
2018-07-14T06:30:45.345Z,0.00
2018-07-14T06:31:45.342Z,0.00
2018-07-14T06:32:45.444Z,0.00
2018-07-14T06:33:45.406Z,0.00
2018-07-14T06:34:45.511Z,0.00
2018-07-14T06:35:45.497Z,0.00
2018-07-14T06:36:45.563Z,0.00
2018-07-14T06:37:45.589Z,0.00
2018-07-14T06:38:45.766Z,0.00
2018-07-14T06:39:45.686Z,0.00
2018-07-14T06:40:45.732Z,0.00
2018-07-14T06:41:45.993Z,0.00
2018-07-14T06:42:45.790Z,0.00
2018-07-14T06:43:45.902Z,0.00
2018-07-14T06:44:45.967Z,0.00
2018-07-14T06:45:45.918Z,0.00
2018-07-14T06:46:45.982Z,0.00
2018-07-14T06:47:46.013Z,0.00
2018-07-14T06:48:46.069Z,0.00
2018-07-14T06:49:46.107Z,0.00
2018-07-14T06:50:46.161Z,0.00
2018-07-14T06:51:46.203Z,0.00
2018-07-14T06:52:46.453Z,0.00
2018-07-14T06:53:46.273Z,0.00
2018-07-14T06:54:46.304Z,0.00
2018-07-14T06:55:46.393Z,0.00
2018-07-14T06:56:46.390Z,0.00
2018-07-14T06:57:46.462Z,0.00
2018-07-14T06:58:46.496Z,0.00
2018-07-14T06:59:46.537Z,0.00
2018-07-14T07:00:46.611Z,0.00
2018-07-14T07:01:46.627Z,0.00
2018-07-14T07:02:46.660Z,0.00
2018-07-14T07:03:46.900Z,0.00
2018-07-14T07:04:46.759Z,0.00
2018-07-14T07:05:46.793Z,0.00
2018-07-14T07:06:46.833Z,0.00
2018-07-14T07:07:46.873Z,0.00
2018-07-14T07:08:46.936Z,0.00
2018-07-14T07:09:46.956Z,0.00
2018-07-14T07:10:47.009Z,0.00
2018-07-14T07:11:47.040Z,0.00
2018-07-14T07:12:47.136Z,0.00
2018-07-14T07:13:47.154Z,0.00
2018-07-14T07:14:47.176Z,0.00
2018-07-14T07:15:47.200Z,0.00
2018-07-14T07:16:47.260Z,0.00
2018-07-14T07:17:47.290Z,0.00
2018-07-14T07:18:47.522Z,0.00
2018-07-14T07:19:47.390Z,0.00
2018-07-14T07:20:47.419Z,0.00
2018-07-14T07:21:47.476Z,0.00
2018-07-14T07:22:47.518Z,0.00
2018-07-14T07:23:47.566Z,0.00
2018-07-14T07:24:47.629Z,0.00
2018-07-14T07:25:47.658Z,0.00
2018-07-14T07:26:47.706Z,0.00
2018-07-14T07:27:47.744Z,0.00
2018-07-14T07:28:47.803Z,0.00
2018-07-14T07:29:47.822Z,0.00
2018-07-14T07:30:47.851Z,0.00
2018-07-14T07:31:47.911Z,0.00
2018-07-14T07:32:47.977Z,0.00
2018-07-14T07:33:48.235Z,0.00
2018-07-14T07:34:48.027Z,0.00
2018-07-14T07:35:48.078Z,0.00
2018-07-14T07:36:48.126Z,0.00
2018-07-14T07:37:48.174Z,0.00
2018-07-14T07:38:48.206Z,0.00
2018-07-14T07:39:48.245Z,0.00
2018-07-14T07:40:48.276Z,0.00
2018-07-14T07:41:48.340Z,0.00
2018-07-14T07:42:48.382Z,0.00
2018-07-14T07:43:48.463Z,0.00
2018-07-14T07:44:48.460Z,0.00
2018-07-14T07:45:48.486Z,0.00
2018-07-14T07:46:48.516Z,0.00
2018-07-14T07:47:48.577Z,0.00
2018-07-14T07:48:48.858Z,0.00
2018-07-14T07:49:48.657Z,0.00
2018-07-14T07:50:48.725Z,0.00
2018-07-14T07:51:48.750Z,0.00
2018-07-14T07:52:48.787Z,0.00
2018-07-14T07:53:48.835Z,0.00
2018-07-14T07:54:48.884Z,0.00
2018-07-14T07:55:48.929Z,0.00
2018-07-14T07:56:48.945Z,0.00
2018-07-14T07:57:48.998Z,0.00
2018-07-14T07:58:49.075Z,0.00
2018-07-14T07:59:49.090Z,0.00
2018-07-14T08:00:49.315Z,0.00
2018-07-14T08:01:49.236Z,0.00
2018-07-14T08:02:49.208Z,0.00
2018-07-14T08:03:49.282Z,0.00
2018-07-14T08:04:49.292Z,0.00
2018-07-14T08:05:49.358Z,0.00
2018-07-14T08:06:49.392Z,0.00
2018-07-14T08:07:49.408Z,0.00
2018-07-14T08:08:49.483Z,0.00
2018-07-14T08:09:49.551Z,0.00
2018-07-14T08:10:49.574Z,0.00
2018-07-14T08:11:49.616Z,0.00
2018-07-14T08:12:49.857Z,0.00
2018-07-14T08:13:49.677Z,0.00
2018-07-14T08:14:49.712Z,0.00
2018-07-14T08:15:49.765Z,0.00
2018-07-14T08:16:49.804Z,0.00
2018-07-14T08:17:49.859Z,0.00
2018-07-14T08:18:49.919Z,0.00
2018-07-14T08:19:49.929Z,0.00
2018-07-14T08:20:50.011Z,0.00
2018-07-14T08:21:50.024Z,0.00
2018-07-14T08:22:50.097Z,0.00
2018-07-14T08:23:50.091Z,0.00
2018-07-14T08:24:50.337Z,0.00
2018-07-14T08:25:50.183Z,0.00
2018-07-14T08:26:50.236Z,0.00
2018-07-14T08:27:50.280Z,0.00
2018-07-14T08:28:50.321Z,0.00
2018-07-14T08:29:50.350Z,0.00
2018-07-14T08:30:50.393Z,0.00
2018-07-14T08:31:50.446Z,0.00
2018-07-14T08:32:50.506Z,0.00
2018-07-14T08:33:50.563Z,0.00
2018-07-14T08:34:50.561Z,0.00
2018-07-14T08:35:50.623Z,0.00
2018-07-14T08:36:50.664Z,0.00
2018-07-14T08:37:50.687Z,0.00
2018-07-14T08:38:50.733Z,0.00
2018-07-14T08:39:50.981Z,0.00
2018-07-14T08:40:50.804Z,0.00
2018-07-14T08:41:50.860Z,0.00
2018-07-14T08:42:50.899Z,0.00
2018-07-14T08:43:51.018Z,0.00
2018-07-14T08:44:51.008Z,0.00
2018-07-14T08:45:51.030Z,0.00
2018-07-14T08:46:51.107Z,0.00
2018-07-14T08:47:51.115Z,0.00
2018-07-14T08:48:51.138Z,0.00
2018-07-14T08:49:51.202Z,0.00
2018-07-14T08:50:51.441Z,0.00
2018-07-14T08:51:51.287Z,0.00
2018-07-14T08:52:51.337Z,0.00
2018-07-14T08:53:51.351Z,0.00
2018-07-14T08:54:51.407Z,0.00
2018-07-14T08:55:51.434Z,0.00
2018-07-14T08:56:51.494Z,0.00
2018-07-14T08:57:51.526Z,0.00
2018-07-14T08:58:51.580Z,0.00
2018-07-14T08:59:51.631Z,0.00
2018-07-14T09:00:51.668Z,0.00
2018-07-14T09:01:51.711Z,0.00
2018-07-14T09:02:51.723Z,0.00
2018-07-14T09:03:51.806Z,0.00
2018-07-14T09:04:51.822Z,0.00
2018-07-14T09:05:52.068Z,0.00
2018-07-14T09:06:51.918Z,0.00
2018-07-14T09:07:51.964Z,0.00
2018-07-14T09:08:51.979Z,0.00
2018-07-14T09:09:52.023Z,0.00
2018-07-14T09:10:52.052Z,0.00
2018-07-14T09:11:52.107Z,0.00
2018-07-14T09:12:52.169Z,0.00
2018-07-14T09:13:52.217Z,0.00
2018-07-14T09:14:52.238Z,0.00
2018-07-14T09:15:52.278Z,0.00
2018-07-14T09:16:52.584Z,0.00
2018-07-14T09:17:52.386Z,0.00
2018-07-14T09:18:52.398Z,0.00
2018-07-14T09:19:52.463Z,0.00
2018-07-14T09:20:52.547Z,0.00
2018-07-14T09:21:52.530Z,0.00
2018-07-14T09:22:52.609Z,0.00
2018-07-14T09:23:52.601Z,4.00
2018-07-14T09:24:52.686Z,4.00
2018-07-14T09:25:52.727Z,0.00
2018-07-14T09:26:52.771Z,4.00
2018-07-14T09:27:52.769Z,4.00
2018-07-14T09:28:53.044Z,8.00
2018-07-14T09:29:52.914Z,4.00
2018-07-14T09:30:52.928Z,12.00
2018-07-14T09:31:52.974Z,12.00
2018-07-14T09:32:53.009Z,16.00
2018-07-14T09:33:53.051Z,20.00
2018-07-14T09:34:53.089Z,28.00
2018-07-14T09:35:53.124Z,32.00
2018-07-14T09:36:53.152Z,40.00
2018-07-14T09:37:53.230Z,52.00
2018-07-14T09:38:53.245Z,64.00
2018-07-14T09:39:53.471Z,80.00
2018-07-14T09:40:53.317Z,96.00
2018-07-14T09:41:53.399Z,116.00
2018-07-14T09:42:53.412Z,140.00
2018-07-14T09:43:53.479Z,168.00
2018-07-14T09:44:53.502Z,200.00
2018-07-14T09:45:53.536Z,240.00
2018-07-14T09:46:53.560Z,280.00
2018-07-14T09:47:53.625Z,332.00
2018-07-14T09:48:53.704Z,376.00
2018-07-14T09:49:53.680Z,420.00
2018-07-14T09:50:53.737Z,464.00
2018-07-14T09:51:53.786Z,512.00
2018-07-14T09:52:53.834Z,564.00
2018-07-14T09:53:53.858Z,616.00
2018-07-14T09:54:54.103Z,672.00
2018-07-14T09:55:53.965Z,720.00
2018-07-14T09:56:53.981Z,768.00
2018-07-14T09:57:54.011Z,812.00
2018-07-14T09:58:54.080Z,864.00
2018-07-14T09:59:54.162Z,928.00
2018-07-14T10:00:54.143Z,996.00
2018-07-14T10:01:54.189Z,1064.00
2018-07-14T10:02:54.245Z,1112.00
2018-07-14T10:03:54.305Z,1176.00
2018-07-14T10:04:54.324Z,1268.00
2018-07-14T10:05:54.380Z,1372.00
2018-07-14T10:06:54.637Z,1472.00
2018-07-14T10:07:54.446Z,1552.00
2018-07-14T10:08:54.501Z,1604.00
2018-07-14T10:09:54.562Z,1668.00
2018-07-14T10:10:54.582Z,1756.00
2018-07-14T10:11:54.616Z,1840.00
2018-07-14T10:12:54.656Z,1896.00
2018-07-14T10:13:54.698Z,1960.00
2018-07-14T10:14:54.778Z,2040.00
2018-07-14T10:15:54.776Z,2136.00
2018-07-14T10:16:54.847Z,2236.00
2018-07-14T10:17:54.886Z,2332.00
2018-07-14T10:18:55.122Z,2416.00
2018-07-14T10:19:54.951Z,2504.00
2018-07-14T10:20:54.989Z,2596.00
2018-07-14T10:21:55.033Z,2708.00
2018-07-14T10:22:55.116Z,2804.00
2018-07-14T10:23:55.109Z,2900.00
2018-07-14T10:24:55.150Z,2976.00
2018-07-14T10:25:55.366Z,3040.00
2018-07-14T10:26:55.227Z,3108.00
2018-07-14T10:27:55.249Z,3160.00
2018-07-14T10:28:55.537Z,3236.00
2018-07-14T10:29:55.337Z,3340.00
2018-07-14T10:30:55.394Z,3448.00
2018-07-14T10:31:55.430Z,3632.00
2018-07-14T10:32:55.504Z,3908.00
2018-07-14T10:33:55.543Z,4288.00
2018-07-14T10:34:55.571Z,4900.00
2018-07-14T10:35:55.626Z,5136.00
2018-07-14T10:36:55.643Z,4920.00
2018-07-14T10:37:55.703Z,5640.00
2018-07-14T10:38:55.736Z,6016.00
2018-07-14T10:39:55.979Z,6764.00
2018-07-14T10:40:55.803Z,6976.00
2018-07-14T10:41:55.872Z,10052.00
2018-07-14T10:42:55.900Z,14976.00
2018-07-14T10:43:55.946Z,17440.00
2018-07-14T10:44:55.979Z,18432.00
2018-07-14T10:45:56.038Z,19360.00
2018-07-14T10:46:56.063Z,17792.00
2018-07-14T10:47:56.154Z,19776.00
2018-07-14T10:48:56.158Z,18464.00
2018-07-14T10:49:56.221Z,21536.00
2018-07-14T10:50:56.224Z,21888.00
2018-07-14T10:51:56.281Z,23520.00
2018-07-14T10:52:56.319Z,23744.00
2018-07-14T10:53:56.335Z,25440.00
2018-07-14T10:54:56.610Z,26720.00
2018-07-14T10:55:56.441Z,25632.00
2018-07-14T10:56:56.512Z,25600.00
2018-07-14T10:57:56.529Z,21920.00
2018-07-14T10:58:56.591Z,27072.00
2018-07-14T10:59:56.675Z,28384.00
2018-07-14T11:00:56.670Z,29504.00
2018-07-14T11:01:56.722Z,28672.00
2018-07-14T11:02:56.771Z,27104.00
2018-07-14T11:03:56.815Z,30112.00
2018-07-14T11:04:56.877Z,30976.00
2018-07-14T11:05:56.910Z,30592.00
2018-07-14T11:06:57.155Z,31680.00
2018-07-14T11:07:57.005Z,32672.00
2018-07-14T11:08:57.033Z,33504.00
2018-07-14T11:09:57.080Z,31840.00
2018-07-14T11:10:57.125Z,33568.00
2018-07-14T11:11:57.157Z,34624.00
2018-07-14T11:12:57.217Z,34400.00
2018-07-14T11:13:57.250Z,34112.00
2018-07-14T11:14:57.319Z,35328.00
2018-07-14T11:15:57.390Z,36768.00
2018-07-14T11:16:57.432Z,36896.00
2018-07-14T11:17:57.534Z,35552.00
2018-07-14T11:18:57.686Z,36192.00
2018-07-14T11:19:57.559Z,36704.00
2018-07-14T11:20:57.570Z,36128.00
2018-07-14T11:21:57.614Z,36032.00
2018-07-14T11:22:57.718Z,36576.00
2018-07-14T11:23:57.750Z,36832.00
2018-07-14T11:24:57.769Z,36576.00
2018-07-14T11:25:57.833Z,35584.00
2018-07-14T11:26:57.877Z,34784.00
2018-07-14T11:27:57.927Z,36928.00
2018-07-14T11:28:57.961Z,38880.00
2018-07-14T11:29:58.060Z,38816.00
2018-07-14T11:30:58.076Z,37664.00
2018-07-14T11:31:58.149Z,39584.00
2018-07-14T11:32:58.176Z,40736.00
2018-07-14T11:33:58.226Z,40768.00
2018-07-14T11:34:58.283Z,42560.00
2018-07-14T11:35:58.321Z,42656.00
2018-07-14T11:36:58.577Z,42560.00
2018-07-14T11:37:58.403Z,42304.00
2018-07-14T11:38:58.461Z,43200.00
2018-07-14T11:39:58.561Z,43744.00
2018-07-14T11:40:58.566Z,43072.00
2018-07-14T11:41:58.600Z,42496.00
2018-07-14T11:42:58.657Z,42816.00
2018-07-14T11:43:58.711Z,43168.00
2018-07-14T11:44:58.791Z,43840.00
2018-07-14T11:45:58.801Z,44320.00
2018-07-14T11:46:58.888Z,44320.00
2018-07-14T11:47:58.932Z,44704.00
2018-07-14T11:48:59.211Z,45408.00
2018-07-14T11:49:59.007Z,46432.00
2018-07-14T11:50:59.078Z,46496.00
2018-07-14T11:51:59.098Z,45216.00
2018-07-14T11:52:59.151Z,44960.00
2018-07-14T11:53:59.193Z,45760.00
2018-07-14T11:54:59.250Z,46496.00
2018-07-14T11:55:59.292Z,46144.00
2018-07-14T11:56:59.362Z,48384.00
2018-07-14T11:57:59.384Z,47616.00
2018-07-14T11:58:59.423Z,46176.00
2018-07-14T11:59:59.509Z,47456.00
2018-07-14T12:00:59.765Z,47296.00
2018-07-14T12:01:59.621Z,48064.00
2018-07-14T12:02:59.643Z,50176.00
2018-07-14T12:03:59.708Z,50944.00
2018-07-14T12:04:59.752Z,49728.00
2018-07-14T12:05:59.814Z,49120.00
2018-07-14T12:06:59.884Z,48512.00
2018-07-14T12:07:59.911Z,49856.00
2018-07-14T12:08:59.967Z,50368.00
2018-07-14T12:10:00.003Z,49824.00
2018-07-14T12:11:00.110Z,49344.00
2018-07-14T12:12:00.109Z,51456.00
2018-07-14T12:13:00.159Z,53856.00
2018-07-14T12:14:00.201Z,53664.00
2018-07-14T12:15:00.242Z,53856.00
2018-07-14T12:16:00.296Z,51616.00
2018-07-14T12:17:00.373Z,51328.00
2018-07-14T12:18:00.410Z,52864.00
2018-07-14T12:19:00.477Z,51776.00
2018-07-14T12:20:00.517Z,53792.00
2018-07-14T12:21:00.576Z,53536.00
2018-07-14T12:22:00.633Z,53760.00
2018-07-14T12:23:00.933Z,51968.00
2018-07-14T12:24:00.732Z,53504.00
2018-07-14T12:25:00.786Z,54592.00
2018-07-14T12:26:00.818Z,54016.00
2018-07-14T12:27:00.879Z,53216.00
2018-07-14T12:28:00.969Z,54176.00
2018-07-14T12:29:00.986Z,54720.00
2018-07-14T12:30:01.068Z,53280.00
2018-07-14T12:31:01.101Z,50592.00
2018-07-14T12:32:01.160Z,52224.00
2018-07-14T12:33:01.220Z,58560.00
2018-07-14T12:34:01.239Z,57344.00
2018-07-14T12:35:01.310Z,53312.00
2018-07-14T12:36:01.370Z,53792.00
2018-07-14T12:37:01.427Z,52768.00
2018-07-14T12:38:01.474Z,54496.00
2018-07-14T12:39:01.554Z,57664.00
2018-07-14T12:40:01.587Z,58176.00
2018-07-14T12:41:01.611Z,58976.00
2018-07-14T12:42:01.658Z,59808.00
2018-07-14T12:43:01.752Z,62112.00
2018-07-14T12:44:01.779Z,58880.00
2018-07-14T12:45:01.869Z,59840.00
2018-07-14T12:46:01.901Z,59808.00
2018-07-14T12:47:01.985Z,61248.00
2018-07-14T12:48:02.044Z,61504.00
2018-07-14T12:49:02.066Z,60576.00
2018-07-14T12:50:02.137Z,61472.00
2018-07-14T12:51:02.179Z,60448.00
2018-07-14T12:52:02.216Z,60000.00
2018-07-14T12:53:02.292Z,61440.00
2018-07-14T12:54:02.339Z,63680.00
2018-07-14T12:55:02.393Z,61696.00